Time;durP1;ratioP1;P1;durP2;ratioP2;P2;SDS_P1;SDS_P2;PMS_P1;PMS_P2;Temp;Humidity;BMP_temperature;BMP_pressure;BME280_temperature;BME280_humidity;BME280_pressure;Samples;Min_cycle;Max_cycle;Signal;HPM_P1;HPM_P2
2022/08/27 00:00:21;;;;;;;11.65;10.45;;;15.90;99.90;;;;;;4993754;28;20227;-54
2022/08/27 00:02:48;;;;;;;11.00;9.25;;;15.90;99.90;;;;;;4993520;28;21024;-56
2022/08/27 00:05:17;;;;;;;13.05;10.52;;;15.90;99.90;;;;;;4992000;28;20112;-55
2022/08/27 00:07:44;;;;;;;12.07;10.77;;;15.90;99.90;;;;;;4994613;28;20067;-55
2022/08/27 00:10:18;;;;;;;13.18;11.07;;;15.90;99.90;;;;;;4994018;28;20131;-55
2022/08/27 00:12:47;;;;;;;11.50;10.30;;;15.90;99.90;;;;;;4993414;28;20049;-55
2022/08/27 00:15:14;;;;;;;15.38;10.75;;;15.90;99.90;;;;;;4994043;28;20073;-55
2022/08/27 00:17:44;;;;;;;12.10;10.00;;;15.90;99.90;;;;;;4993770;28;20744;-55
2022/08/27 00:20:14;;;;;;;10.38;9.05;;;15.90;99.90;;;;;;4993259;28;20078;-53
2022/08/27 00:22:42;;;;;;;15.55;9.35;;;15.90;99.90;;;;;;4992238;28;20915;-52
2022/08/27 00:25:10;;;;;;;10.40;8.90;;;15.90;99.90;;;;;;4993490;28;20038;-54
2022/08/27 00:27:38;;;;;;;10.48;9.30;;;15.90;99.90;;;;;;4992944;28;20519;-54
2022/08/27 00:30:08;;;;;;;11.25;9.90;;;15.90;99.90;;;;;;4983902;28;20940;-57
2022/08/27 00:32:34;;;;;;;9.40;8.32;;;15.90;99.90;;;;;;4994149;28;20049;-55
2022/08/27 00:35:01;;;;;;;;;;;15.90;99.90;;;;;;4992211;28;20042;-54
2022/08/27 00:37:28;;;;;;;11.40;9.48;;;15.90;99.90;;;;;;4993995;28;19944;-55
2022/08/27 00:39:55;;;;;;;8.32;7.53;;;15.90;99.90;;;;;;4993501;28;20135;-54
2022/08/27 00:42:21;;;;;;;9.35;7.85;;;15.90;99.90;;;;;;4991891;28;20042;-54
2022/08/27 00:44:48;;;;;;;9.45;8.45;;;15.90;99.90;;;;;;4993281;28;20046;-54
2022/08/27 00:47:20;;;;;;;8.82;7.93;;;15.90;99.90;;;;;;4993752;28;20795;-55
2022/08/27 00:49:57;;;;;;;8.48;7.45;;;15.90;99.90;;;;;;4993105;28;20056;-56
2022/08/27 00:52:34;;;;;;;8.35;7.50;;;15.90;99.90;;;;;;4994067;28;20042;-56
2022/08/27 00:55:08;;;;;;;9.85;8.55;;;15.90;99.90;;;;;;4993106;28;20046;-56
2022/08/27 00:57:37;;;;;;;10.90;9.55;;;15.90;99.90;;;;;;4993345;28;20158;-56
2022/08/27 01:00:08;;;;;;;8.27;7.57;;;15.90;99.90;;;;;;4992089;28;20380;-54
2022/08/27 01:02:35;;;;;;;8.20;7.38;;;15.90;99.90;;;;;;4992724;28;20042;-54
2022/08/27 01:05:07;;;;;;;8.77;7.70;;;15.90;99.90;;;;;;4992846;28;20042;-54
2022/08/27 01:07:39;;;;;;;8.88;7.88;;;15.90;99.90;;;;;;4991094;28;20042;-54
2022/08/27 01:10:12;;;;;;;7.70;6.93;;;15.90;99.90;;;;;;4993542;28;20120;-55
2022/08/27 01:12:39;;;;;;;7.85;7.07;;;15.90;99.90;;;;;;4991543;28;20054;-55
2022/08/27 01:15:12;;;;;;;10.75;8.88;;;15.90;99.90;;;;;;4980095;28;20117;-56
2022/08/27 01:17:46;;;;;;;9.13;7.50;;;15.90;99.90;;;;;;4973626;28;20069;-54
2022/08/27 01:20:39;;;;;;;11.63;7.70;;;15.90;99.90;;;;;;4973140;28;20054;-54
2022/08/27 01:23:35;;;;;;;9.43;8.48;;;15.90;99.90;;;;;;4973492;28;20271;-54
2022/08/27 01:26:03;;;;;;;9.45;8.55;;;15.90;99.90;;;;;;4963680;28;20050;-56
2022/08/27 01:28:31;;;;;;;10.27;7.53;;;15.90;99.90;;;;;;4973787;28;20823;-55
2022/08/27 01:31:06;;;;;;;8.77;7.72;;;15.90;99.90;;;;;;4981997;28;20599;-54
2022/08/27 01:33:33;;;;;;;11.35;9.27;;;15.80;99.90;;;;;;4992771;28;20056;-56
2022/08/27 01:36:00;;;;;;;10.90;9.57;;;15.90;99.90;;;;;;4992397;28;20258;-56
2022/08/27 01:38:28;;;;;;;9.60;8.05;;;15.90;99.90;;;;;;4993161;28;20146;-55
2022/08/27 01:40:57;;;;;;;11.82;8.77;;;15.90;99.90;;;;;;4994614;28;20203;-57
2022/08/27 01:43:26;;;;;;;8.05;7.25;;;15.90;99.90;;;;;;4996852;28;20038;-57
2022/08/27 01:45:53;;;;;;;8.75;7.95;;;15.80;99.90;;;;;;4996168;28;20737;-56
2022/08/27 01:48:21;;;;;;;11.25;7.57;;;15.80;99.90;;;;;;4996470;28;20073;-55
2022/08/27 01:50:49;;;;;;;10.02;7.75;;;15.80;99.90;;;;;;4996300;28;20053;-55
2022/08/27 01:53:19;;;;;;;9.30;7.60;;;15.80;99.90;;;;;;4995637;28;20784;-55
2022/08/27 01:55:47;;;;;;;12.25;7.85;;;15.80;99.90;;;;;;4996325;28;20053;-55
2022/08/27 01:58:16;;;;;;;9.13;7.63;;;15.80;99.90;;;;;;4996390;28;20112;-55
2022/08/27 02:00:45;;;;;;;9.13;7.47;;;15.80;99.90;;;;;;4996179;28;20130;-55
2022/08/27 02:03:12;;;;;;;9.02;7.85;;;15.80;99.90;;;;;;4995718;28;20129;-56
2022/08/27 02:05:39;;;;;;;12.15;8.88;;;15.80;99.90;;;;;;4995171;28;20042;-56
2022/08/27 02:08:14;;;;;;;10.25;9.25;;;15.80;99.90;;;;;;4994333;28;20046;-52
2022/08/27 02:10:43;;;;;;;8.00;6.97;;;15.70;99.90;;;;;;4995316;28;20049;-55
2022/08/27 02:13:12;;;;;;;8.75;7.43;;;15.70;99.90;;;;;;4995644;28;20736;-54
2022/08/27 02:15:40;;;;;;;7.85;6.80;;;15.70;99.90;;;;;;4995158;28;20049;-54
2022/08/27 02:18:09;;;;;;;10.77;7.97;;;15.70;99.90;;;;;;4995760;28;20092;-55
2022/08/27 02:20:36;;;;;;;10.23;8.85;;;15.70;99.90;;;;;;4994833;28;20129;-54
2022/08/27 02:23:03;;;;;;;;;;;15.70;99.90;;;;;;4996399;28;20540;-55
2022/08/27 02:25:30;;;;;;;8.63;7.37;;;15.70;99.90;;;;;;4996145;28;20339;-56
2022/08/27 02:27:58;;;;;;;8.70;7.32;;;15.70;99.90;;;;;;4994299;28;20128;-56
2022/08/27 02:30:27;;;;;;;8.07;7.28;;;15.70;99.90;;;;;;4994904;28;20112;-56
2022/08/27 02:32:54;;;;;;;7.03;6.32;;;15.70;99.90;;;;;;4977429;28;20116;-56
2022/08/27 02:35:23;;;;;;;8.88;7.30;;;15.70;99.90;;;;;;4975876;28;20105;-54
2022/08/27 02:37:50;;;;;;;8.77;7.47;;;15.80;99.90;;;;;;4994832;28;20061;-56
2022/08/27 02:40:20;;;;;;;16.10;8.93;;;15.80;99.90;;;;;;4995909;28;20045;-56
2022/08/27 02:42:48;;;;;;;9.80;7.90;;;15.80;99.90;;;;;;4994998;28;20579;-54
2022/08/27 02:45:16;;;;;;;11.15;8.18;;;15.80;99.90;;;;;;4995146;28;20053;-53
2022/08/27 02:47:43;;;;;;;10.10;8.32;;;15.80;99.90;;;;;;4995430;28;20057;-53
2022/08/27 02:50:12;;;;;;;11.38;8.55;;;15.80;99.90;;;;;;4995173;28;20092;-52
2022/08/27 02:52:39;;;;;;;9.02;8.10;;;15.80;99.90;;;;;;4995103;28;20173;-55
2022/08/27 02:55:07;;;;;;;8.02;7.22;;;15.80;99.90;;;;;;4994743;28;20053;-54
2022/08/27 02:57:34;;;;;;;8.00;7.22;;;15.80;99.90;;;;;;4995206;28;20060;-55
2022/08/27 03:00:10;;;;;;;7.47;6.60;;;15.80;99.90;;;;;;4994850;28;20046;-55
2022/08/27 03:02:37;;;;;;;8.70;7.30;;;15.70;99.90;;;;;;5013611;28;20087;-55
2022/08/27 03:05:06;;;;;;;10.45;8.38;;;15.80;99.90;;;;;;5014472;28;20128;-53
2022/08/27 03:07:33;;;;;;;10.27;8.20;;;15.80;99.90;;;;;;5001193;28;20042;-55
2022/08/27 03:09:59;;;;;;;;;;;15.80;99.90;;;;;;4995655;28;20049;-54
2022/08/27 03:12:26;;;;;;;9.20;7.40;;;15.80;99.90;;;;;;4994656;28;19925;-54
2022/08/27 03:14:53;;;;;;;;;;;15.80;99.90;;;;;;4984702;28;20128;-54
2022/08/27 03:20:07;;;;;;;11.43;7.78;;;15.80;99.90;;;;;;4975094;28;20054;-56
2022/08/27 03:22:33;;;;;;;11.60;7.45;;;15.80;99.90;;;;;;4974627;28;20050;-56
2022/08/27 03:25:01;;;;;;;;;;;15.80;99.90;;;;;;4976035;28;20109;-55
2022/08/27 03:27:28;;;;;;;10.65;8.90;;;15.80;99.90;;;;;;4974406;28;19926;-56
2022/08/27 03:29:55;;;;;;;;;;;15.90;99.90;;;;;;4975946;28;20109;-56
2022/08/27 03:32:26;;;;;;;9.07;7.53;;;15.90;99.90;;;;;;4984753;28;19929;-55
2022/08/27 03:34:55;;;;;;;;;;;15.90;99.90;;;;;;4994035;28;20199;-56
2022/08/27 03:37:22;;;;;;;8.35;7.43;;;15.90;99.90;;;;;;4994101;28;19980;-56
2022/08/27 03:39:48;;;;;;;;;;;15.90;99.90;;;;;;4994740;28;20057;-54
2022/08/27 03:42:15;;;;;;;10.65;9.00;;;15.90;99.90;;;;;;4994723;28;19960;-55
2022/08/27 03:44:42;;;;;;;;;;;15.90;99.90;;;;;;4995104;28;20425;-56
2022/08/27 03:47:09;;;;;;;11.13;8.40;;;15.90;99.90;;;;;;4994585;28;20072;-55
2022/08/27 03:49:36;;;;;;;12.70;9.27;;;15.90;99.90;;;;;;4994433;28;20240;-55
2022/08/27 03:52:02;;;;;;;;;;;16.00;99.90;;;;;;4992829;28;20077;-55
2022/08/27 03:54:30;;;;;;;11.65;9.65;;;16.00;99.90;;;;;;4994371;28;20455;-54
2022/08/27 03:56:57;;;;;;;12.85;11.02;;;16.00;99.90;;;;;;4993660;28;20071;-56
2022/08/27 03:59:23;;;;;;;;;;;16.00;99.90;;;;;;4995392;28;20373;-56
2022/08/27 04:01:50;;;;;;;12.02;10.82;;;16.00;99.90;;;;;;4993476;28;19925;-55
2022/08/27 04:04:17;;;;;;;;;;;16.00;99.90;;;;;;4993683;28;20045;-54
2022/08/27 04:06:44;;;;;;;12.27;10.48;;;16.00;99.90;;;;;;4993376;28;19933;-55
2022/08/27 04:09:11;;;;;;;;;;;16.00;99.90;;;;;;4995426;28;20076;-53
2022/08/27 04:11:37;;;;;;;13.63;11.57;;;16.00;99.90;;;;;;4995024;28;19921;-53
2022/08/27 04:14:05;;;;;;;;;;;16.00;99.90;;;;;;4979482;28;20042;-54
2022/08/27 04:16:50;;;;;;;16.45;12.32;;;16.00;99.90;;;;;;4994344;28;19947;-54
2022/08/27 04:19:18;;;;;;;16.35;14.60;;;16.00;99.90;;;;;;4993343;28;20057;-55
2022/08/27 04:21:49;;;;;;;14.20;12.63;;;16.00;99.90;;;;;;4995209;28;20044;-55
2022/08/27 04:24:16;;;;;;;15.60;11.18;;;16.00;99.90;;;;;;4994854;28;20044;-53
2022/08/27 04:26:44;;;;;;;12.98;11.60;;;16.00;99.90;;;;;;4995196;28;20536;-53
2022/08/27 04:29:11;;;;;;;12.82;11.35;;;16.00;99.90;;;;;;4995125;28;20042;-54
2022/08/27 04:31:37;;;;;;;;;;;16.00;99.90;;;;;;4995130;28;20452;-55
2022/08/27 04:34:06;;;;;;;12.20;10.40;;;16.00;99.90;;;;;;4987459;28;19930;-54
2022/08/27 04:36:33;;;;;;;11.90;10.50;;;16.00;99.90;;;;;;4992635;28;20528;-55
2022/08/27 04:39:00;;;;;;;;;;;16.00;99.90;;;;;;4995635;28;20468;-54
2022/08/27 04:41:27;;;;;;;15.25;12.63;;;16.00;99.90;;;;;;4994890;28;19936;-55
2022/08/27 04:43:56;;;;;;;11.68;10.48;;;16.00;99.90;;;;;;4994929;28;20045;-54
2022/08/27 04:46:29;;;;;;;14.52;10.90;;;16.00;99.90;;;;;;4995343;28;20042;-53
2022/08/27 04:48:58;;;;;;;12.98;11.65;;;16.10;99.90;;;;;;4994863;28;20045;-54
2022/08/27 04:51:27;;;;;;;11.68;10.15;;;16.00;99.90;;;;;;4995493;28;20045;-54
2022/08/27 04:53:55;;;;;;;12.23;10.88;;;16.00;99.90;;;;;;4993722;28;20041;-54
2022/08/27 04:56:25;;;;;;;11.57;10.38;;;16.10;99.90;;;;;;4995459;28;20049;-55
2022/08/27 04:58:52;;;;;;;;;;;16.10;99.90;;;;;;4993823;28;20049;-54
2022/08/27 05:01:27;;;;;;;13.77;11.35;;;16.10;99.90;;;;;;4995194;28;19937;-55
2022/08/27 05:03:54;;;;;;;12.90;11.50;;;16.10;99.90;;;;;;4994315;28;20135;-54
2022/08/27 05:06:22;;;;;;;12.27;10.02;;;16.00;99.90;;;;;;4995120;28;20556;-54
2022/08/27 05:08:50;;;;;;;11.60;10.40;;;16.10;99.90;;;;;;4991152;28;20630;-55
2022/08/27 05:11:19;;;;;;;12.07;10.57;;;16.00;99.90;;;;;;4993169;28;20042;-55
2022/08/27 05:13:46;;;;;;;12.30;11.00;;;16.00;99.90;;;;;;4989967;28;20085;-54
2022/08/27 05:16:22;;;;;;;12.05;10.85;;;16.10;99.90;;;;;;4976488;28;20038;-55
2022/08/27 05:18:51;;;;;;;15.90;12.23;;;16.10;99.90;;;;;;4979055;28;20425;-54
2022/08/27 05:21:26;;;;;;;11.95;10.70;;;16.00;99.90;;;;;;4977105;28;20038;-54
2022/08/27 05:23:55;;;;;;;13.68;11.38;;;16.10;99.90;;;;;;4977086;28;20141;-54
2022/08/27 05:26:22;;;;;;;15.38;11.07;;;16.00;99.90;;;;;;4978770;28;20050;-54
2022/08/27 05:28:49;;;;;;;14.13;12.52;;;16.00;99.90;;;;;;4978690;28;20054;-55
2022/08/27 05:31:19;;;;;;;12.35;11.05;;;16.00;99.90;;;;;;4976958;28;20137;-53
2022/08/27 05:33:47;;;;;;;15.52;12.95;;;16.00;99.90;;;;;;4984874;28;20048;-54
2022/08/27 05:36:17;;;;;;;11.27;10.18;;;16.00;99.90;;;;;;4990055;28;20609;-54
2022/08/27 05:38:44;;;;;;;14.90;12.30;;;16.00;99.90;;;;;;4992520;28;20046;-54
2022/08/27 05:41:14;;;;;;;13.25;11.85;;;16.00;99.90;;;;;;4996707;28;20440;-53
2022/08/27 05:43:42;;;;;;;14.82;12.77;;;16.00;99.90;;;;;;4997344;28;20610;-55
2022/08/27 05:46:18;;;;;;;15.00;11.70;;;16.00;99.90;;;;;;4998053;28;20120;-54
2022/08/27 05:48:47;;;;;;;12.30;11.00;;;16.00;99.90;;;;;;4997513;28;20034;-55
2022/08/27 05:51:16;;;;;;;11.13;9.98;;;16.10;99.90;;;;;;4997906;28;20582;-53
2022/08/27 05:53:55;;;;;;;12.32;9.10;;;16.00;99.90;;;;;;4995706;28;20054;-55
2022/08/27 05:56:24;;;;;;;11.07;9.15;;;16.00;99.90;;;;;;4997228;28;20423;-55
2022/08/27 06:01:41;;;;;;;11.43;10.23;;;16.10;99.90;;;;;;4994829;28;20596;-54
2022/08/27 06:04:08;;;;;;;12.85;11.45;;;16.10;99.90;;;;;;4997311;28;20424;-55
2022/08/27 06:06:37;;;;;;;11.20;10.10;;;16.10;99.90;;;;;;4995649;28;20046;-55
2022/08/27 06:09:05;;;;;;;13.30;11.25;;;16.10;99.90;;;;;;4995599;28;20053;-53
2022/08/27 06:11:32;;;;;;;11.93;10.20;;;16.10;99.90;;;;;;4995472;28;20053;-51
2022/08/27 06:13:59;;;;;;;13.85;12.27;;;16.10;99.90;;;;;;4996998;28;20049;-52
2022/08/27 06:16:26;;;;;;;;;;;16.10;99.90;;;;;;4998001;28;20042;-53
2022/08/27 06:18:53;;;;;;;13.63;10.75;;;16.10;99.90;;;;;;4996803;28;19933;-52
2022/08/27 06:21:21;;;;;;;14.52;11.63;;;16.10;99.90;;;;;;4997263;28;20057;-54
2022/08/27 06:23:53;;;;;;;18.23;16.00;;;16.10;99.90;;;;;;4996032;28;20866;-54
2022/08/27 06:26:22;;;;;;;18.60;13.05;;;16.10;99.90;;;;;;4996751;28;20129;-53
2022/08/27 06:28:49;;;;;;;14.57;12.32;;;16.10;99.90;;;;;;4990620;28;20066;-53
2022/08/27 06:31:19;;;;;;;16.42;14.13;;;16.10;99.90;;;;;;4996332;28;20433;-54
2022/08/27 06:33:46;;;;;;;16.05;11.02;;;16.00;99.90;;;;;;4995621;28;20046;-52
2022/08/27 06:36:16;;;;;;;13.70;11.45;;;16.00;99.90;;;;;;4987752;28;20062;-55
2022/08/27 06:38:43;;;;;;;20.23;14.18;;;16.00;99.90;;;;;;4989616;28;20147;-54
2022/08/27 06:41:12;;;;;;;14.75;11.23;;;16.00;99.90;;;;;;4996047;28;20597;-54
2022/08/27 06:43:50;;;;;;;13.80;11.88;;;16.00;99.90;;;;;;4994658;28;20050;-55
2022/08/27 06:46:20;;;;;;;11.27;10.07;;;16.00;99.90;;;;;;4995826;28;20046;-53
2022/08/27 06:48:55;;;;;;;12.00;9.85;;;16.00;99.90;;;;;;4996241;28;20064;-50
2022/08/27 06:51:25;;;;;;;8.57;7.78;;;16.00;99.90;;;;;;4994983;28;20046;-54
2022/08/27 06:53:57;;;;;;;11.20;9.00;;;16.00;99.90;;;;;;4996211;28;20057;-50
2022/08/27 06:56:25;;;;;;;8.27;7.47;;;16.00;99.90;;;;;;4995049;28;20627;-53
2022/08/27 06:58:58;;;;;;;8.85;7.95;;;16.10;99.90;;;;;;4995311;28;20045;-50
2022/08/27 07:01:30;;;;;;;9.82;7.65;;;16.10;99.90;;;;;;4996019;28;20698;-54
2022/08/27 07:03:59;;;;;;;8.70;7.75;;;16.10;99.90;;;;;;4993665;28;20133;-53
2022/08/27 07:06:28;;;;;;;15.95;11.48;;;16.10;99.90;;;;;;4994410;28;20522;-52
2022/08/27 07:08:56;;;;;;;10.27;9.18;;;16.10;99.90;;;;;;4992711;28;20046;-53
2022/08/27 07:11:23;;;;;;;9.95;8.77;;;16.10;99.90;;;;;;4995496;28;20073;-53
2022/08/27 07:13:50;;;;;;;9.57;8.55;;;16.10;99.90;;;;;;4992231;28;20695;-53
2022/08/27 07:16:20;;;;;;;9.90;8.73;;;16.10;99.90;;;;;;4976301;28;20108;-51
2022/08/27 07:18:50;;;;;;;9.50;8.57;;;16.20;99.90;;;;;;4975701;28;20050;-53
2022/08/27 07:21:21;;;;;;;8.93;8.00;;;16.20;99.90;;;;;;4973899;28;20046;-55
2022/08/27 07:23:49;;;;;;;12.07;10.60;;;16.20;99.90;;;;;;4994447;28;20791;-53
2022/08/27 07:26:18;;;;;;;11.95;10.32;;;16.20;99.90;;;;;;4994909;28;20707;-53
2022/08/27 07:28:46;;;;;;;11.55;9.80;;;16.20;99.90;;;;;;4993287;28;20045;-53
2022/08/27 07:31:17;;;;;;;11.13;9.98;;;16.20;99.90;;;;;;4994960;28;20054;-53
2022/08/27 07:33:45;;;;;;;8.85;7.95;;;16.20;99.90;;;;;;4993030;28;20577;-55
2022/08/27 07:36:21;;;;;;;12.38;10.77;;;16.20;99.90;;;;;;4990832;28;20077;-54
2022/08/27 07:38:51;;;;;;;11.15;9.32;;;16.30;99.90;;;;;;4991794;28;20843;-54
2022/08/27 07:41:31;;;;;;;9.85;8.80;;;16.30;99.90;;;;;;4994930;28;20042;-53
2022/08/27 07:46:45;;;;;;;9.18;8.25;;;16.40;99.90;;;;;;5012180;28;20046;-56
2022/08/27 07:49:16;;;;;;;9.63;8.63;;;16.40;99.90;;;;;;5013952;28;20274;-53
2022/08/27 07:51:43;;;;;;;11.00;8.25;;;16.40;99.90;;;;;;5014652;28;20049;-58
2022/08/27 07:54:10;;;;;;;9.48;7.95;;;16.50;99.90;;;;;;5012011;28;20088;-56
2022/08/27 07:56:37;;;;;;;9.25;8.25;;;16.60;99.90;;;;;;5012815;28;20106;-54
2022/08/27 07:59:04;;;;;;;9.07;7.45;;;16.60;99.90;;;;;;4995908;28;20046;-54
2022/08/27 08:01:31;;;;;;;;;;;16.60;99.90;;;;;;4995038;28;20444;-57
2022/08/27 08:03:57;;;;;;;9.60;8.60;;;16.70;99.90;;;;;;4994508;28;19983;-51
2022/08/27 08:06:24;;;;;;;;;;;16.70;99.90;;;;;;4994916;28;20463;-55
2022/08/27 08:08:52;;;;;;;12.05;9.43;;;16.70;99.90;;;;;;4994725;28;19925;-54
2022/08/27 08:11:19;;;;;;;12.40;9.52;;;16.80;99.90;;;;;;4991996;28;20049;-55
2022/08/27 08:13:47;;;;;;;11.45;9.73;;;16.80;99.90;;;;;;4993489;28;20049;-55
2022/08/27 08:16:14;;;;;;;12.32;11.07;;;16.90;99.90;;;;;;4994764;28;20046;-55
2022/08/27 08:18:42;;;;;;;9.60;8.70;;;16.90;99.90;;;;;;4994141;28;20508;-55
2022/08/27 08:21:12;;;;;;;10.63;9.60;;;16.90;99.90;;;;;;4993903;28;20046;-56
2022/08/27 08:23:41;;;;;;;12.27;9.73;;;17.00;99.90;;;;;;4993392;28;20046;-52
2022/08/27 08:26:09;;;;;;;9.93;8.98;;;17.00;99.90;;;;;;4994807;28;20471;-55
2022/08/27 08:28:38;;;;;;;9.85;8.88;;;17.00;99.90;;;;;;4994237;28;20041;-54
2022/08/27 08:31:05;;;;;;;9.95;8.95;;;17.10;99.90;;;;;;4992464;28;20128;-57
2022/08/27 08:33:32;;;;;;;10.73;9.38;;;17.10;99.90;;;;;;4994017;28;20118;-55
2022/08/27 08:36:05;;;;;;;9.93;8.93;;;17.10;99.90;;;;;;4993764;28;20092;-55
2022/08/27 08:38:33;;;;;;;9.45;7.90;;;17.20;99.90;;;;;;4992377;28;20045;-55
2022/08/27 08:41:00;;;;;;;9.73;8.52;;;17.20;99.90;;;;;;4993781;28;20108;-56
2022/08/27 08:43:37;;;;;;;10.30;9.05;;;17.20;99.90;;;;;;4992840;28;20034;-55
2022/08/27 08:46:08;;;;;;;;;;;17.20;99.90;;;;;;4994888;28;20053;-57
2022/08/27 08:48:37;;;;;;;9.55;8.05;;;17.30;99.90;;;;;;4993584;28;19921;-58
2022/08/27 08:51:22;;;;;;;9.27;7.93;;;17.30;99.90;;;;;;4998132;28;20049;-61
2022/08/27 08:54:03;;;;;;;8.85;7.95;;;17.30;99.90;;;;;;4997625;28;20061;-53
2022/08/27 08:56:44;;;;;;;9.48;8.10;;;17.40;99.90;;;;;;4998098;28;20042;-50
2022/08/27 09:00:12;;;;;;;10.50;9.50;;;17.40;99.90;;;;;;5071972;28;20681;-54
2022/08/27 09:02:46;;;;;;;11.77;10.57;;;17.40;99.90;;;;;;5070340;28;20044;-62
2022/08/27 09:05:13;;;;;;;10.68;9.02;;;17.50;99.90;;;;;;5068926;28;20350;-55
2022/08/27 09:07:49;;;;;;;11.13;10.00;;;17.50;99.90;;;;;;5071592;28;20048;-55
2022/08/27 09:10:30;;;;;;;8.80;7.68;;;17.60;99.90;;;;;;5069605;28;20040;-54
2022/08/27 09:13:01;;;;;;;13.65;11.30;;;17.60;99.90;;;;;;5071493;28;20495;-54
2022/08/27 09:15:35;;;;;;;12.10;9.23;;;17.70;99.90;;;;;;5070995;28;20044;-55
2022/08/27 09:18:12;;;;;;;12.18;9.77;;;17.70;99.90;;;;;;5071231;28;20046;-54
2022/08/27 09:20:48;;;;;;;10.30;9.30;;;17.70;99.90;;;;;;5071088;28;20044;-54
2022/08/27 09:23:24;;;;;;;9.90;8.90;;;17.80;99.90;;;;;;5070727;28;20127;-53
2022/08/27 09:25:51;;;;;;;11.05;10.05;;;17.80;99.90;;;;;;5069543;28;20056;-56
2022/08/27 09:31:13;;;;;;;8.52;7.72;;;17.90;99.90;;;;;;5070594;28;20089;-49
2022/08/27 09:33:41;;;;;;;9.18;8.15;;;18.00;99.90;;;;;;5069860;28;20071;-59
2022/08/27 09:36:24;;;;;;;8.68;7.78;;;18.00;99.90;;;;;;5069363;28;20065;-61
2022/08/27 09:38:56;;;;;;;7.70;6.85;;;18.10;99.90;;;;;;5052362;28;20872;-60
2022/08/27 09:41:34;;;;;;;11.43;10.32;;;18.20;99.90;;;;;;5049151;28;20063;-61
2022/08/27 09:44:08;;;;;;;15.07;7.78;;;18.20;99.90;;;;;;5050373;28;20048;-61
2022/08/27 09:46:35;;;;;;;8.63;7.80;;;18.20;99.90;;;;;;5050315;28;20102;-63
2022/08/27 09:49:16;;;;;;;8.70;7.15;;;18.30;99.90;;;;;;5050825;28;20569;-57
2022/08/27 09:51:45;;;;;;;8.48;7.68;;;18.30;99.90;;;;;;5050219;28;20045;-61
2022/08/27 09:54:35;;;;;;;8.60;7.70;;;18.40;99.90;;;;;;5049778;28;20045;-60
2022/08/27 09:57:02;;;;;;;8.93;7.20;;;18.50;99.90;;;;;;5049802;28;20061;-60
2022/08/27 09:59:48;;;;;;;7.93;7.13;;;18.50;99.90;;;;;;5050025;28;20090;-58
2022/08/27 10:02:18;;;;;;;10.98;8.40;;;18.60;99.90;;;;;;5049330;28;20442;-57
2022/08/27 10:04:55;;;;;;;8.48;7.65;;;18.70;99.90;;;;;;5049960;28;20523;-59
2022/08/27 10:07:25;;;;;;;7.95;7.20;;;18.80;99.90;;;;;;5050062;28;20051;-54
2022/08/27 10:10:02;;;;;;;7.55;6.25;;;18.90;99.90;;;;;;5049564;28;20110;-53
2022/08/27 10:12:55;;;;;;;6.53;5.82;;;18.90;99.90;;;;;;5056648;28;20066;-54
2022/08/27 10:15:28;;;;;;;6.40;5.00;;;19.00;99.90;;;;;;5055361;28;20065;-54
2022/08/27 10:18:08;;;;;;;4.93;4.53;;;19.10;99.90;;;;;;5056646;28;20059;-53
2022/08/27 10:21:15;;;;;;;5.75;5.25;;;19.20;99.90;;;;;;5056454;28;20040;-53
2022/08/27 10:24:03;;;;;;;6.20;5.60;;;19.30;99.90;;;;;;5033277;28;20601;-53
2022/08/27 10:26:55;;;;;;;7.07;6.13;;;19.40;99.90;;;;;;5054774;28;20044;-54
2022/08/27 10:29:29;;;;;;;7.15;6.45;;;19.50;99.90;;;;;;5056992;28;20299;-53
2022/08/27 10:32:18;;;;;;;5.60;5.10;;;19.50;99.90;;;;;;5056277;28;20494;-52
2022/08/27 10:35:32;;;;;;;4.80;4.40;;;19.50;99.90;;;;;;5056103;28;20063;-53
2022/08/27 10:38:15;;;;;;;6.78;5.57;;;19.60;99.90;;;;;;5041203;28;20075;-54
2022/08/27 10:41:05;;;;;;;5.53;5.00;;;19.70;99.90;;;;;;5035005;28;20052;-52
2022/08/27 10:43:47;;;;;;;6.45;5.45;;;19.80;99.90;;;;;;5035828;28;20067;-52
2022/08/27 10:46:51;;;;;;;6.18;5.43;;;19.80;99.90;;;;;;5034689;28;20131;-53
2022/08/27 10:49:36;;;;;;;5.85;5.28;;;20.00;99.90;;;;;;5050928;28;20056;-51
2022/08/27 10:52:24;;;;;;;5.15;4.38;;;20.10;99.90;;;;;;5055671;28;20040;-52
2022/08/27 10:55:12;;;;;;;10.65;6.38;;;20.10;99.90;;;;;;5055089;28;20059;-52
2022/08/27 10:57:39;;;;;;;;;;;20.20;99.90;;;;;;5056209;28;20036;-52
2022/08/27 11:00:38;;;;;;;6.40;5.57;;;20.30;99.90;;;;;;5055676;28;20655;-52
2022/08/27 11:03:14;;;;;;;5.40;4.90;;;20.40;99.90;;;;;;5055638;28;20037;-51
2022/08/27 11:05:48;;;;;;;7.05;6.10;;;20.40;99.90;;;;;;5053816;28;20048;-49
2022/08/27 11:08:21;;;;;;;6.63;5.90;;;20.50;99.90;;;;;;5055934;28;20059;-50
2022/08/27 11:10:53;;;;;;;9.77;6.47;;;20.50;99.90;;;;;;5053120;28;20035;-49
2022/08/27 11:13:32;;;;;;;9.55;6.65;;;20.50;99.90;;;;;;5051993;28;20530;-63
2022/08/27 11:16:05;;;;;;;7.57;6.32;;;20.70;99.90;;;;;;5035044;28;20040;-54
2022/08/27 11:18:50;;;;;;;9.10;8.05;;;20.80;99.90;;;;;;5035769;28;20188;-54
2022/08/27 11:21:20;;;;;;;9.70;8.18;;;21.00;99.90;;;;;;5033336;28;20062;-54
2022/08/27 11:24:37;;;;;;;8.40;7.57;;;21.20;99.90;;;;;;5052198;28;20044;-53
2022/08/27 11:27:07;;;;;;;8.82;7.35;;;21.50;99.90;;;;;;4994917;28;20049;-53
2022/08/27 11:29:43;;;;;;;7.80;6.78;;;21.70;99.90;;;;;;5012105;28;20077;-53
2022/08/27 11:32:36;;;;;;;10.15;7.28;;;21.90;99.90;;;;;;5039249;28;20064;-54
2022/08/27 11:35:15;;;;;;;8.02;7.22;;;22.10;99.90;;;;;;5054643;28;20045;-53
2022/08/27 11:38:03;;;;;;;8.98;8.05;;;22.20;99.90;;;;;;5055157;28;20082;-50
2022/08/27 11:40:51;;;;;;;9.55;7.60;;;22.40;99.90;;;;;;5039136;28;20772;-53
2022/08/27 11:43:24;;;;;;;9.57;8.05;;;22.50;99.90;;;;;;5035275;28;20122;-52
2022/08/27 11:46:00;;;;;;;10.30;7.97;;;22.70;99.90;;;;;;5036580;28;20040;-52
2022/08/27 11:48:29;;;;;;;12.40;8.00;;;23.00;99.90;;;;;;5055205;28;20102;-54
2022/08/27 11:51:05;;;;;;;10.38;7.45;;;23.40;99.90;;;;;;5053157;28;20044;-55
2022/08/27 11:53:38;;;;;;;8.30;7.38;;;23.80;99.90;;;;;;5054494;28;20525;-51
2022/08/27 11:56:27;;;;;;;9.60;6.93;;;24.20;99.90;;;;;;5054173;28;20090;-53
2022/08/27 11:58:54;;;;;;;8.05;6.80;;;24.50;99.90;;;;;;5054578;28;20036;-56
2022/08/27 12:01:28;;;;;;;8.85;7.18;;;24.80;99.90;;;;;;5055140;28;20568;-57
2022/08/27 12:04:05;;;;;;;7.88;6.75;;;25.10;99.90;;;;;;5054437;28;20068;-55
2022/08/27 12:06:41;;;;;;;8.90;7.50;;;25.40;99.90;;;;;;5054836;28;20036;-55
2022/08/27 12:09:19;;;;;;;7.53;6.82;;;25.60;99.90;;;;;;5054041;28;20045;-52
2022/08/27 12:12:13;;;;;;;7.93;7.13;;;25.80;99.90;;;;;;5052816;28;20067;-55
2022/08/27 12:15:03;;;;;;;8.40;7.40;;;26.00;99.90;;;;;;5053956;28;20045;-64
2022/08/27 12:17:46;;;;;;;8.52;7.68;;;26.10;99.90;;;;;;5054212;28;20044;-66
2022/08/27 12:20:51;;;;;;;7.47;6.72;;;26.20;99.90;;;;;;5054367;28;20604;-64
2022/08/27 12:24:01;;;;;;;9.05;7.03;;;26.20;99.90;;;;;;5053925;28;20056;-64
2022/08/27 12:26:33;;;;;;;7.68;6.95;;;26.10;99.90;;;;;;5044605;28;20055;-66
2022/08/27 12:29:30;;;;;;;8.35;6.32;;;26.20;99.90;;;;;;5054638;28;20581;-65
2022/08/27 12:32:27;;;;;;;8.43;6.55;;;26.20;99.90;;;;;;5053976;28;20037;-65
2022/08/27 12:35:01;;;;;;;7.72;6.47;;;26.10;99.90;;;;;;5052306;28;20605;-65
2022/08/27 12:37:35;;;;;;;7.18;6.47;;;26.00;99.90;;;;;;5053307;28;20040;-66
2022/08/27 12:40:28;;;;;;;7.70;6.30;;;26.10;99.90;;;;;;5049538;28;20053;-65
2022/08/27 12:43:12;;;;;;;7.38;6.63;;;26.20;99.90;;;;;;5030674;28;20151;-66
2022/08/27 12:45:48;;;;;;;8.10;6.10;;;26.30;99.90;;;;;;5033242;28;20086;-65
2022/08/27 12:48:21;;;;;;;7.97;5.78;;;26.10;99.90;;;;;;5031759;28;20054;-66
2022/08/27 12:50:55;;;;;;;8.95;6.88;;;25.90;99.90;;;;;;5034550;28;20586;-67
2022/08/27 12:53:33;;;;;;;7.47;6.68;;;25.60;99.90;;;;;;5034392;28;20044;-64
2022/08/27 12:56:29;;;;;;;8.75;6.78;;;25.30;99.90;;;;;;5034032;28;20049;-64
2022/08/27 12:59:22;;;;;;;7.65;6.88;;;24.90;99.90;;;;;;5028760;28;20053;-65
2022/08/27 13:02:36;;;;;;;6.90;6.20;;;24.60;99.90;;;;;;5034208;28;20045;-63
2022/08/27 13:05:05;;;;;;;7.53;6.72;;;24.20;99.90;;;;;;5033848;28;20049;-63
2022/08/27 13:07:43;;;;;;;8.45;7.05;;;23.90;99.90;;;;;;5033898;28;20560;-64
2022/08/27 13:10:19;;;;;;;7.85;7.05;;;23.70;99.90;;;;;;5035859;28;20041;-66
2022/08/27 13:12:47;;;;;;;8.57;7.68;;;23.50;99.90;;;;;;5050511;28;20162;-65
2022/08/27 13:15:15;;;;;;;8.82;7.93;;;23.30;99.90;;;;;;5053617;28;20053;-64
2022/08/27 13:17:45;;;;;;;13.27;8.70;;;23.10;99.90;;;;;;5052918;28;20049;-66
2022/08/27 13:20:21;;;;;;;11.10;9.43;;;23.00;99.90;;;;;;5053743;28;20098;-65
2022/08/27 13:22:50;;;;;;;16.73;10.65;;;22.80;99.90;;;;;;5052807;28;20044;-65
2022/08/27 13:25:29;;;;;;;11.70;10.50;;;22.80;99.90;;;;;;5053630;28;20047;-65